PAEN/ENA METAR and TAF weather

Enter ICAO airport designator
Station Type Date Time Source
PAEN METAR 2018/12/13 06:53 UTC NOAA

PAEN 130653Z AUTO 32003KT 9SM -SN BKN042 OVC085 M06/M08 A2919 RMK AO2 SLP889 P0000 T10611078 TSNO


Station Type Date Time Source
PAEN Decoded METAR 2018/12/13 06:53 UTC NOAA

KENAI MUNICIPAL AIRPORT, AK, United States (PAEN) 60-35N 151-14W 25M
Dec 13, 2018 - 01:53 AM EST / 2018.12.13 0653 UTC
Wind: from the NW (320 degrees) at 3 MPH (3 KT):0
Visibility: 9 mile(s):0
Sky conditions: overcast
Weather: light snow
Precipitation last hour: A trace
Temperature: 21.0 F (-6.1 C)
Dew Point: 18.0 F (-7.8 C)
Relative Humidity: 87%
Pressure (altimeter): 29.19 in. Hg (988 hPa)
ob: PAEN 130653Z AUTO 32003KT 9SM -SN BKN042 OVC085 M06/M08 A2919 RMK AO2 SLP889 P0000 T10611078 TSNO
cycle: 7

Station Type Date Time Source
PAEN TAF 2018/12/13 06:27 UTC NOAA

TAF PAEN 130524Z 1306/1406 32006KT 6SM -SN OVC025
TEMPO 1306/1310 2SM -SN OVC018
FM131400 VRB06KT P6SM VCSH SCT030 BKN050


Example: see airport list